Miami, Florida
Traffic Map
Current Weather Conditions
Miami, Florida
Scattered Clouds
Scattered Clouds
30°
Feels Like: 35°
Wind Chill: 30° Ceiling: Unl
Heat Index: 35° Visibility: 10mi
Dew Point: 24° Wind: 13mph
Humidity: 70% Direction: 110° (ESE)
Pressure: 30.08in Gusts: 0mph
Raw Report DataKMIA 011253Z 11011KT 10SM SCT025 SCT200 30/24 A3008 RMK AO2 SLP185 T03000239
Traffic Incident Summary
Active as of:
Severity:
Category:
InformationThere was an issue retrieving the traffic information for this location. Please try a different location or try again shortly.
Advertisements
Track Severe Weather on mobile